createdAt,value
2023-01-19T00:03:17.953Z,99.90
2023-01-19T00:07:37.602Z,99.90
2023-01-19T00:11:56.052Z,99.90
2023-01-19T00:16:17.476Z,99.90
2023-01-19T00:20:40.742Z,99.90
2023-01-19T00:24:58.899Z,99.90
2023-01-19T00:29:17.009Z,99.90
2023-01-19T00:33:37.232Z,99.90
2023-01-19T00:37:57.493Z,99.90
2023-01-19T00:42:34.835Z,99.90
2023-01-19T00:46:53.753Z,99.90
2023-01-19T00:51:13.267Z,99.90
2023-01-19T00:55:33.822Z,99.90
2023-01-19T00:59:51.171Z,99.90
2023-01-19T01:04:09.242Z,99.90
2023-01-19T01:08:28.622Z,99.90
2023-01-19T01:13:20.412Z,99.90
2023-01-19T01:17:27.863Z,99.90
2023-01-19T01:21:46.012Z,99.90
2023-01-19T01:26:05.822Z,99.90
2023-01-19T01:30:25.200Z,99.90
2023-01-19T01:34:43.881Z,99.90
2023-01-19T01:39:01.591Z,99.90
2023-01-19T01:43:21.771Z,99.90
2023-01-19T01:47:45.729Z,99.90
2023-01-19T01:52:04.859Z,99.90
2023-01-19T01:56:28.619Z,99.90
2023-01-19T02:01:05.725Z,99.90
2023-01-19T02:05:27.991Z,99.90
2023-01-19T02:10:04.682Z,99.90
2023-01-19T02:14:24.005Z,99.90
2023-01-19T02:18:45.290Z,99.90
2023-01-19T02:23:06.517Z,99.90
2023-01-19T02:27:25.731Z,99.90
2023-01-19T02:31:46.429Z,99.90
2023-01-19T02:36:04.610Z,99.90
2023-01-19T02:40:24.967Z,99.90
2023-01-19T02:44:53.678Z,99.90
2023-01-19T02:49:17.554Z,99.90
2023-01-19T02:53:56.479Z,99.90
2023-01-19T02:58:24.454Z,99.90
2023-01-19T03:03:01.310Z,99.90
2023-01-19T03:07:35.491Z,99.90
2023-01-19T03:12:07.051Z,99.90
2023-01-19T03:16:36.874Z,99.90
2023-01-19T03:21:06.779Z,99.90
2023-01-19T03:25:36.426Z,99.90
2023-01-19T03:30:07.716Z,99.90
2023-01-19T03:34:32.536Z,99.90
2023-01-19T03:39:01.350Z,99.90
2023-01-19T03:43:27.548Z,99.90
2023-01-19T03:47:51.599Z,99.90
2023-01-19T03:52:15.575Z,99.90
2023-01-19T03:56:40.883Z,99.90
2023-01-19T04:01:05.098Z,99.90
2023-01-19T04:05:29.614Z,99.90
2023-01-19T04:09:53.435Z,99.90
2023-01-19T04:14:28.830Z,99.90
2023-01-19T04:18:53.622Z,99.90
2023-01-19T04:23:17.685Z,99.90
2023-01-19T04:27:41.651Z,99.90
2023-01-19T04:32:07.382Z,99.90
2023-01-19T04:36:31.396Z,99.90
2023-01-19T04:40:55.963Z,99.90
2023-01-19T04:45:19.878Z,99.90
2023-01-19T04:49:45.304Z,99.90
2023-01-19T04:54:10.061Z,99.90
2023-01-19T04:58:34.322Z,99.90
2023-01-19T05:02:58.755Z,99.90
2023-01-19T05:07:24.252Z,99.90
2023-01-19T05:11:48.057Z,99.90
2023-01-19T05:16:14.038Z,99.90
2023-01-19T05:20:37.926Z,99.90
2023-01-19T05:25:03.272Z,99.90
2023-01-19T05:29:27.235Z,99.90
2023-01-19T05:33:51.172Z,99.90
2023-01-19T05:38:17.068Z,99.90
2023-01-19T05:42:44.163Z,99.90
2023-01-19T05:47:08.149Z,99.90
2023-01-19T05:51:35.224Z,99.90
2023-01-19T05:56:03.080Z,99.90
2023-01-19T06:00:29.163Z,99.90
2023-01-19T06:04:53.294Z,99.90
2023-01-19T06:09:17.377Z,99.90
2023-01-19T06:13:42.267Z,99.90
2023-01-19T06:18:07.545Z,99.90
2023-01-19T06:22:31.317Z,99.90
2023-01-19T06:26:55.328Z,99.90
2023-01-19T06:31:19.577Z,99.90
2023-01-19T06:35:46.044Z,99.90
2023-01-19T06:40:13.631Z,99.90
2023-01-19T06:44:38.302Z,99.90
2023-01-19T06:49:02.382Z,99.90
2023-01-19T06:53:30.195Z,99.90
2023-01-19T06:57:59.021Z,99.90
2023-01-19T07:02:26.679Z,99.90
2023-01-19T07:06:51.972Z,99.90
2023-01-19T07:11:24.772Z,99.90
2023-01-19T07:15:53.932Z,99.90
2023-01-19T07:20:19.630Z,99.90
2023-01-19T07:24:43.617Z,99.90
2023-01-19T07:29:09.041Z,99.90
2023-01-19T07:33:33.092Z,99.90
2023-01-19T07:37:57.043Z,99.90
2023-01-19T07:42:21.420Z,99.90
2023-01-19T07:46:46.956Z,99.90
2023-01-19T07:51:12.952Z,99.90
2023-01-19T07:55:37.178Z,99.90
2023-01-19T08:00:01.015Z,99.90
2023-01-19T08:04:26.396Z,99.90
2023-01-19T08:08:50.988Z,99.90
2023-01-19T08:13:15.222Z,99.90
2023-01-19T08:17:39.272Z,99.90
2023-01-19T08:22:05.110Z,99.90
2023-01-19T08:26:31.625Z,99.90
2023-01-19T08:30:55.657Z,99.90
2023-01-19T08:35:19.791Z,99.90
2023-01-19T08:39:45.162Z,99.90
2023-01-19T08:44:09.355Z,99.90
2023-01-19T08:48:33.470Z,99.90
2023-01-19T08:52:58.390Z,99.90
2023-01-19T08:57:23.813Z,99.90
2023-01-19T09:01:48.039Z,99.90
2023-01-19T09:06:14.645Z,99.90
2023-01-19T09:10:39.640Z,99.90
2023-01-19T09:15:05.253Z,99.90
2023-01-19T09:19:32.901Z,99.90
2023-01-19T09:23:57.824Z,99.90
2023-01-19T09:28:21.726Z,99.90
2023-01-19T09:32:47.520Z,99.90
2023-01-19T09:37:11.298Z,99.90
2023-01-19T09:41:38.615Z,99.90
2023-01-19T09:46:04.271Z,99.90
2023-01-19T09:50:36.531Z,99.90
2023-01-19T09:55:00.480Z,99.90
2023-01-19T09:59:26.381Z,99.90
2023-01-19T10:03:55.162Z,99.90
2023-01-19T10:08:29.062Z,99.90
2023-01-19T10:13:05.296Z,99.90
2023-01-19T10:17:42.501Z,99.90
2023-01-19T10:22:20.855Z,99.90
2023-01-19T10:26:49.804Z,99.60
2023-01-19T10:31:14.667Z,99.40
2023-01-19T10:35:38.500Z,98.40
2023-01-19T10:40:15.060Z,98.60
2023-01-19T10:44:40.885Z,98.20
2023-01-19T10:49:05.776Z,96.60
2023-01-19T10:53:29.849Z,96.30
2023-01-19T10:57:54.139Z,96.20
2023-01-19T11:02:22.335Z,96.10
2023-01-19T11:06:46.643Z,96.50
2023-01-19T11:11:12.490Z,94.10
2023-01-19T11:15:42.143Z,93.80
2023-01-19T11:20:19.654Z,93.00
2023-01-19T11:24:45.753Z,93.90
2023-01-19T11:29:18.875Z,93.80
2023-01-19T11:33:50.737Z,93.30
2023-01-19T11:38:23.230Z,93.30
2023-01-19T11:42:47.238Z,92.40
2023-01-19T11:47:16.259Z,91.90
2023-01-19T11:51:49.267Z,91.50
2023-01-19T11:56:16.246Z,92.00
2023-01-19T12:00:45.676Z,93.10
2023-01-19T12:05:16.381Z,92.10
2023-01-19T12:09:43.811Z,91.50
2023-01-19T12:14:18.271Z,92.20
2023-01-19T12:18:45.807Z,92.20
2023-01-19T12:23:23.668Z,90.90
2023-01-19T12:27:50.254Z,88.90
2023-01-19T12:32:34.672Z,89.20
2023-01-19T12:37:02.787Z,87.20
2023-01-19T12:41:30.885Z,87.80
2023-01-19T12:45:55.244Z,88.10
2023-01-19T12:50:23.498Z,86.60
2023-01-19T12:54:56.170Z,87.80
2023-01-19T12:59:26.834Z,89.40
2023-01-19T13:04:03.348Z,90.70
2023-01-19T13:08:50.926Z,91.60
2023-01-19T13:13:19.753Z,92.40
2023-01-19T13:17:50.689Z,92.90
2023-01-19T13:23:02.751Z,93.70
2023-01-19T13:27:29.291Z,93.80
2023-01-19T13:31:56.211Z,93.50
2023-01-19T13:36:28.387Z,93.00
2023-01-19T13:40:53.318Z,93.10
2023-01-19T13:45:28.110Z,92.00
2023-01-19T13:49:56.866Z,92.80
2023-01-19T13:54:21.348Z,92.50
2023-01-19T13:58:45.330Z,91.50
2023-01-19T14:03:21.504Z,91.90
2023-01-19T14:07:45.591Z,92.30
2023-01-19T14:12:14.076Z,92.30
2023-01-19T14:16:38.118Z,92.70
2023-01-19T14:21:07.561Z,92.50
2023-01-19T14:25:49.674Z,92.70
2023-01-19T14:30:25.094Z,93.10
2023-01-19T14:34:52.019Z,93.10
2023-01-19T14:39:25.444Z,93.20
2023-01-19T14:43:49.629Z,93.40
2023-01-19T14:48:18.844Z,93.60
2023-01-19T14:52:45.117Z,93.50
2023-01-19T14:57:15.006Z,93.60
2023-01-19T15:01:42.222Z,93.80
2023-01-19T15:06:06.887Z,93.20
2023-01-19T15:10:32.164Z,93.10
2023-01-19T15:14:58.440Z,93.00
2023-01-19T15:19:22.528Z,92.90
2023-01-19T15:23:47.526Z,92.90
2023-01-19T15:28:12.984Z,93.20
2023-01-19T15:32:43.750Z,93.60
2023-01-19T15:37:10.794Z,93.50
2023-01-19T15:41:39.383Z,93.10
2023-01-19T15:46:06.221Z,93.00
2023-01-19T15:50:36.718Z,93.20
2023-01-19T15:55:01.107Z,93.20
2023-01-19T15:59:31.700Z,93.20
2023-01-19T16:04:09.800Z,93.00
2023-01-19T16:08:56.224Z,93.10
2023-01-19T16:13:22.737Z,93.40
2023-01-19T16:17:47.146Z,93.70
2023-01-19T16:22:12.134Z,93.80
2023-01-19T16:26:42.921Z,94.00
2023-01-19T16:31:07.411Z,94.10
2023-01-19T16:35:34.800Z,94.30
2023-01-19T16:39:59.417Z,94.60
2023-01-19T16:44:30.169Z,94.70
2023-01-19T16:49:13.081Z,94.70
2023-01-19T16:53:37.914Z,94.70
2023-01-19T16:58:15.637Z,94.90
2023-01-19T17:02:41.490Z,95.00
2023-01-19T17:07:05.960Z,95.20
2023-01-19T17:11:36.697Z,95.30
2023-01-19T17:16:02.379Z,95.60
2023-01-19T17:20:28.380Z,96.10
2023-01-19T17:25:10.665Z,96.50
2023-01-19T17:29:54.959Z,96.90
2023-01-19T17:34:19.106Z,97.20
2023-01-19T17:38:45.023Z,97.50
2023-01-19T17:43:09.530Z,97.70
2023-01-19T17:47:33.694Z,97.80
2023-01-19T17:51:57.600Z,97.90
2023-01-19T17:56:26.470Z,98.00
2023-01-19T18:00:50.677Z,98.10
2023-01-19T18:05:15.008Z,98.20
2023-01-19T18:09:38.910Z,98.30
2023-01-19T18:14:04.313Z,98.40
2023-01-19T18:18:28.677Z,98.60
2023-01-19T18:22:52.982Z,98.80
2023-01-19T18:27:17.407Z,98.90
2023-01-19T18:31:42.881Z,98.90
2023-01-19T18:36:08.251Z,99.00
2023-01-19T18:40:32.277Z,99.00
2023-01-19T18:44:56.243Z,99.00
2023-01-19T18:49:23.855Z,99.10
2023-01-19T18:53:47.849Z,99.20
2023-01-19T18:58:11.912Z,99.20
2023-01-19T19:02:30.868Z,99.30
2023-01-19T19:06:53.660Z,99.50
2023-01-19T19:11:18.117Z,99.70
2023-01-19T19:15:44.386Z,99.90
2023-01-19T19:20:13.211Z,99.90
2023-01-19T19:24:42.496Z,99.90
2023-01-19T19:29:06.478Z,99.90
2023-01-19T19:33:30.799Z,99.90
2023-01-19T19:37:57.627Z,99.90
2023-01-19T19:42:23.192Z,99.90
2023-01-19T19:46:50.024Z,99.90
2023-01-19T19:51:19.539Z,99.90
2023-01-19T19:55:45.328Z,99.90
2023-01-19T20:00:12.906Z,99.90
2023-01-19T20:04:37.493Z,99.90
2023-01-19T20:09:24.823Z,99.90
2023-01-19T20:13:50.998Z,99.90
2023-01-19T20:18:19.062Z,99.90
2023-01-19T20:22:43.923Z,99.90
2023-01-19T20:27:07.855Z,99.90
2023-01-19T20:31:34.304Z,99.90
2023-01-19T20:36:00.175Z,99.90
2023-01-19T20:40:24.649Z,99.90
2023-01-19T20:44:49.773Z,99.90
2023-01-19T20:49:14.195Z,99.90
2023-01-19T20:53:40.470Z,99.90
2023-01-19T20:58:04.421Z,99.90
2023-01-19T21:02:28.911Z,99.90
2023-01-19T21:06:46.642Z,99.90
2023-01-19T21:11:06.500Z,99.90
2023-01-19T21:15:27.812Z,99.90
2023-01-19T21:19:47.407Z,99.90
2023-01-19T21:24:07.868Z,99.90
2023-01-19T21:28:28.164Z,99.90
2023-01-19T21:32:46.883Z,99.90
2023-01-19T21:37:04.757Z,99.90
2023-01-19T21:41:28.188Z,99.90
2023-01-19T21:45:49.834Z,99.90
2023-01-19T21:50:09.772Z,99.90
2023-01-19T21:54:29.496Z,99.90
2023-01-19T21:58:49.541Z,99.90
2023-01-19T22:03:12.300Z,99.90
2023-01-19T22:07:29.505Z,99.90
2023-01-19T22:11:50.353Z,99.90
2023-01-19T22:16:13.987Z,99.90
2023-01-19T22:20:39.842Z,99.90
2023-01-19T22:24:57.580Z,99.90
2023-01-19T22:29:17.553Z,99.90
2023-01-19T22:33:39.012Z,99.90
2023-01-19T22:37:59.303Z,99.90
2023-01-19T22:42:19.082Z,99.90
2023-01-19T22:46:41.074Z,99.90
2023-01-19T22:51:01.232Z,99.90
2023-01-19T22:55:23.774Z,99.90
2023-01-19T22:59:43.705Z,99.90
2023-01-19T23:04:02.018Z,99.90
2023-01-19T23:08:22.191Z,99.90
2023-01-19T23:12:46.739Z,99.90
2023-01-19T23:17:04.623Z,99.90
2023-01-19T23:21:25.574Z,99.90
2023-01-19T23:25:48.354Z,99.90
2023-01-19T23:30:11.575Z,99.90
2023-01-19T23:34:29.323Z,99.90
2023-01-19T23:38:50.944Z,99.90
2023-01-19T23:43:08.285Z,99.90
2023-01-19T23:47:27.796Z,99.90
2023-01-19T23:51:47.378Z,99.90
2023-01-19T23:56:13.187Z,99.90
